createdAt,value
2019-02-16T00:01:27.728Z,8.70
2019-02-16T00:03:56.019Z,9.10
2019-02-16T00:06:24.359Z,8.30
2019-02-16T00:08:52.635Z,9.67
2019-02-16T00:11:20.899Z,11.60
2019-02-16T00:13:49.188Z,9.37
2019-02-16T00:16:17.486Z,9.03
2019-02-16T00:18:45.770Z,8.17
2019-02-16T00:21:14.109Z,8.10
2019-02-16T00:23:42.356Z,6.80
2019-02-16T00:26:10.643Z,5.50
2019-02-16T00:28:38.915Z,4.87
2019-02-16T00:31:07.199Z,4.47
2019-02-16T00:33:35.454Z,4.80
2019-02-16T00:36:03.820Z,5.27
2019-02-16T00:38:32.083Z,4.77
2019-02-16T00:41:00.389Z,5.00
2019-02-16T00:43:28.684Z,5.17
2019-02-16T00:45:56.941Z,4.40
2019-02-16T00:48:25.295Z,3.97
2019-02-16T00:50:53.571Z,4.40
2019-02-16T00:53:21.850Z,4.50
2019-02-16T00:55:50.125Z,4.40
2019-02-16T00:58:18.388Z,4.53
2019-02-16T01:00:46.688Z,3.93
2019-02-16T01:03:14.960Z,4.87
2019-02-16T01:05:43.215Z,4.87
2019-02-16T01:08:11.493Z,4.37
2019-02-16T01:10:39.759Z,4.47
2019-02-16T01:13:08.023Z,3.97
2019-02-16T01:15:36.293Z,4.60
2019-02-16T01:18:04.579Z,4.97
2019-02-16T01:20:32.855Z,5.30
2019-02-16T01:23:01.206Z,4.17
2019-02-16T01:25:29.468Z,4.30
2019-02-16T01:27:57.753Z,4.03
2019-02-16T01:30:26.018Z,4.80
2019-02-16T01:32:54.298Z,4.50
2019-02-16T01:35:22.569Z,3.97
2019-02-16T01:37:50.861Z,3.97
2019-02-16T01:40:19.113Z,4.70
2019-02-16T01:42:47.368Z,4.40
2019-02-16T01:45:15.656Z,3.73
2019-02-16T01:47:43.912Z,4.10
2019-02-16T01:50:12.200Z,4.00
2019-02-16T01:52:40.509Z,3.37
2019-02-16T01:55:09.585Z,3.43
2019-02-16T01:57:37.828Z,3.77
2019-02-16T02:00:07.934Z,4.00
2019-02-16T02:02:36.220Z,3.60
2019-02-16T02:05:05.235Z,3.30
2019-02-16T02:07:33.561Z,3.97
2019-02-16T02:10:01.819Z,4.43
2019-02-16T02:12:30.079Z,4.00
2019-02-16T02:14:58.445Z,3.47
2019-02-16T02:17:26.703Z,4.73
2019-02-16T02:19:54.985Z,4.40
2019-02-16T02:22:23.250Z,3.03
2019-02-16T02:24:51.515Z,3.77
2019-02-16T02:27:19.775Z,4.77
2019-02-16T02:29:48.064Z,5.93
2019-02-16T02:32:16.359Z,4.60
2019-02-16T02:34:44.610Z,5.00
2019-02-16T02:37:12.892Z,4.77
2019-02-16T02:39:41.200Z,5.00
2019-02-16T02:42:09.534Z,4.47
2019-02-16T02:44:37.822Z,3.73
2019-02-16T02:47:06.149Z,3.77
2019-02-16T02:49:34.415Z,3.90
2019-02-16T02:52:02.702Z,4.30
2019-02-16T02:54:30.958Z,4.10
2019-02-16T02:56:59.239Z,5.43
2019-02-16T02:59:27.507Z,5.47
2019-02-16T03:01:55.791Z,5.70
2019-02-16T03:04:24.124Z,5.97
2019-02-16T03:06:52.433Z,6.53
2019-02-16T03:09:20.694Z,6.17
2019-02-16T03:11:48.973Z,6.07
2019-02-16T03:14:17.240Z,5.53
2019-02-16T03:16:45.519Z,5.60
2019-02-16T03:19:13.792Z,6.00
2019-02-16T03:21:42.091Z,5.60
2019-02-16T03:24:10.350Z,6.43
2019-02-16T03:26:42.387Z,5.67
2019-02-16T03:29:37.708Z,5.53
2019-02-16T03:32:24.145Z,5.90
2019-02-16T03:35:07.627Z,5.63
2019-02-16T03:37:53.915Z,5.60
2019-02-16T03:40:22.275Z,5.10
2019-02-16T03:42:50.618Z,5.80
2019-02-16T03:45:18.908Z,5.50
2019-02-16T03:47:47.196Z,5.10
2019-02-16T03:50:15.457Z,5.57
2019-02-16T03:52:43.753Z,5.20
2019-02-16T03:55:11.992Z,5.33
2019-02-16T03:57:40.279Z,5.37
2019-02-16T04:00:09.774Z,5.10
2019-02-16T04:02:38.066Z,5.70
2019-02-16T04:05:07.059Z,5.23
2019-02-16T04:07:35.340Z,4.90
2019-02-16T04:10:04.748Z,4.80
2019-02-16T04:12:33.124Z,5.17
2019-02-16T04:15:01.376Z,4.30
2019-02-16T04:17:29.712Z,5.17
2019-02-16T04:19:57.995Z,4.80
2019-02-16T04:22:26.271Z,5.87
2019-02-16T04:24:54.537Z,4.90
2019-02-16T04:27:22.795Z,4.80
2019-02-16T04:29:51.074Z,5.20
2019-02-16T04:32:19.343Z,5.30
2019-02-16T04:34:47.669Z,4.93
2019-02-16T04:37:15.960Z,4.73
2019-02-16T04:39:44.252Z,5.40
2019-02-16T04:42:12.523Z,4.93
2019-02-16T04:44:40.802Z,5.20
2019-02-16T04:47:09.068Z,4.10
2019-02-16T04:49:37.332Z,4.90
2019-02-16T04:52:05.588Z,4.73
2019-02-16T04:54:33.888Z,5.60
2019-02-16T04:57:02.144Z,5.47
2019-02-16T04:59:30.439Z,5.40
2019-02-16T05:01:58.698Z,4.47
2019-02-16T05:04:26.959Z,5.00
2019-02-16T05:06:55.229Z,4.80
2019-02-16T05:09:23.504Z,4.23
2019-02-16T05:11:51.761Z,4.93
2019-02-16T05:14:20.018Z,4.17
2019-02-16T05:16:48.298Z,4.70
2019-02-16T05:19:16.560Z,5.03
2019-02-16T05:21:44.855Z,4.57
2019-02-16T05:24:13.110Z,4.57
2019-02-16T05:26:41.399Z,4.40
2019-02-16T05:29:09.650Z,3.77
2019-02-16T05:31:37.943Z,3.93
2019-02-16T05:34:06.208Z,5.13
2019-02-16T05:36:34.500Z,4.90
2019-02-16T05:39:03.718Z,5.20
2019-02-16T05:41:32.005Z,4.57
2019-02-16T05:44:00.332Z,3.73
2019-02-16T05:46:28.604Z,3.57
2019-02-16T05:48:56.868Z,4.40
2019-02-16T05:51:25.150Z,4.30
2019-02-16T05:53:53.412Z,5.00
2019-02-16T05:56:21.688Z,4.37
2019-02-16T05:58:49.932Z,4.63
2019-02-16T06:01:18.237Z,4.63
2019-02-16T06:03:46.498Z,4.10
2019-02-16T06:06:14.743Z,4.40
2019-02-16T06:08:43.029Z,4.70
2019-02-16T06:11:11.289Z,3.87
2019-02-16T06:13:39.618Z,3.50
2019-02-16T06:16:07.864Z,4.93
2019-02-16T06:18:36.203Z,4.77
2019-02-16T06:21:04.478Z,3.40
2019-02-16T06:23:32.760Z,3.60
2019-02-16T06:26:01.044Z,3.63
2019-02-16T06:28:29.473Z,3.13
2019-02-16T06:30:57.734Z,3.57
2019-02-16T06:33:26.023Z,4.60
2019-02-16T06:35:55.906Z,4.37
2019-02-16T06:38:24.199Z,4.67
2019-02-16T06:40:52.482Z,4.57
2019-02-16T06:43:20.839Z,4.13
2019-02-16T06:45:49.097Z,4.63
2019-02-16T06:48:17.447Z,4.20
2019-02-16T06:50:45.719Z,4.27
2019-02-16T06:53:14.002Z,4.20
2019-02-16T06:55:43.899Z,4.40
2019-02-16T06:58:12.169Z,4.70
2019-02-16T07:00:40.402Z,4.40
2019-02-16T07:03:08.704Z,4.77
2019-02-16T07:05:36.972Z,4.63
2019-02-16T07:08:05.246Z,4.60
2019-02-16T07:10:33.521Z,4.30
2019-02-16T07:13:01.807Z,3.80
2019-02-16T07:15:30.263Z,4.30
2019-02-16T07:18:08.717Z,4.33
2019-02-16T07:20:37.071Z,4.90
2019-02-16T07:23:05.377Z,4.70
2019-02-16T07:25:33.655Z,4.90
2019-02-16T07:28:01.927Z,5.60
2019-02-16T07:30:30.208Z,5.67
2019-02-16T07:32:58.518Z,5.90
2019-02-16T07:35:26.817Z,9.87
2019-02-16T07:37:55.211Z,9.03
2019-02-16T07:40:23.508Z,8.70
2019-02-16T07:42:55.487Z,8.63
2019-02-16T07:45:42.174Z,8.33
2019-02-16T07:48:12.075Z,7.13
2019-02-16T07:50:42.035Z,6.80
2019-02-16T07:53:31.175Z,6.87
2019-02-16T07:55:55.731Z,6.47
2019-02-16T07:58:25.633Z,6.40
2019-02-16T08:01:11.851Z,5.77
2019-02-16T08:03:47.513Z,5.87
2019-02-16T08:06:23.406Z,5.13
2019-02-16T08:08:55.982Z,4.57
2019-02-16T08:11:31.678Z,5.10
2019-02-16T08:14:13.694Z,6.50
2019-02-16T08:16:43.626Z,7.07
2019-02-16T08:19:13.518Z,6.63
2019-02-16T08:21:49.141Z,6.47
2019-02-16T08:24:30.503Z,6.77
2019-02-16T08:27:16.662Z,7.47
2019-02-16T08:29:52.320Z,7.07
2019-02-16T08:32:24.907Z,10.80
2019-02-16T08:34:54.805Z,9.67
2019-02-16T08:37:41.004Z,10.17
2019-02-16T08:40:16.853Z,12.20
2019-02-16T08:42:58.584Z,9.67
2019-02-16T08:45:34.230Z,10.70
2019-02-16T08:48:12.878Z,10.87
2019-02-16T08:50:42.774Z,10.93
2019-02-16T08:53:29.036Z,12.27
2019-02-16T08:56:11.017Z,11.67
2019-02-16T08:58:43.707Z,12.13
2019-02-16T09:01:13.619Z,11.37
2019-02-16T09:03:43.561Z,11.30
2019-02-16T09:06:29.717Z,11.40
2019-02-16T09:09:08.617Z,11.57
2019-02-16T09:11:54.896Z,13.37
2019-02-16T09:14:42.958Z,10.13
2019-02-16T09:17:13.441Z,9.40
2019-02-16T09:19:49.223Z,8.70
2019-02-16T09:22:19.117Z,8.60
2019-02-16T09:24:49.048Z,10.57
2019-02-16T09:27:18.953Z,8.63
2019-02-16T09:29:51.866Z,7.97
2019-02-16T09:32:27.293Z,8.60
2019-02-16T09:34:57.228Z,7.83
2019-02-16T09:37:35.904Z,7.33
2019-02-16T09:40:12.543Z,8.20
2019-02-16T09:42:45.401Z,7.63
2019-02-16T09:45:18.153Z,7.73
2019-02-16T09:47:50.996Z,7.40
2019-02-16T09:50:23.627Z,6.60
2019-02-16T09:52:59.275Z,6.97
2019-02-16T09:55:41.033Z,7.00
2019-02-16T09:58:23.111Z,7.50
2019-02-16T10:00:56.066Z,9.23
2019-02-16T10:03:32.068Z,7.70
2019-02-16T10:06:08.241Z,10.50
2019-02-16T10:08:43.993Z,11.47
2019-02-16T10:11:26.099Z,9.27
2019-02-16T10:13:58.991Z,12.40
2019-02-16T10:16:28.953Z,12.17
2019-02-16T10:19:04.612Z,9.43
2019-02-16T10:21:43.417Z,7.13
2019-02-16T10:24:28.493Z,7.17
2019-02-16T10:27:04.449Z,6.37
2019-02-16T10:29:52.291Z,7.03
2019-02-16T10:32:36.786Z,7.23
2019-02-16T10:35:07.212Z,8.03
2019-02-16T10:37:52.087Z,6.00
2019-02-16T10:40:24.507Z,6.17
2019-02-16T10:43:12.026Z,7.43
2019-02-16T10:45:42.047Z,10.37
2019-02-16T10:48:14.967Z,9.03
2019-02-16T10:50:47.417Z,9.13
2019-02-16T10:53:32.452Z,9.68
2019-02-16T10:56:18.793Z,9.25
2019-02-16T10:58:57.571Z,8.00
2019-02-16T11:01:43.426Z,8.05
2019-02-16T11:04:13.366Z,6.95
2019-02-16T11:06:46.346Z,7.35
2019-02-16T11:09:22.074Z,6.50
2019-02-16T11:11:51.967Z,6.53
2019-02-16T11:14:27.323Z,6.80
2019-02-16T11:16:57.293Z,6.33
2019-02-16T11:19:32.835Z,6.72
2019-02-16T11:22:14.857Z,6.40
2019-02-16T11:25:00.983Z,6.28
2019-02-16T11:27:30.897Z,6.25
2019-02-16T11:30:00.818Z,5.87
2019-02-16T11:32:45.951Z,6.12
2019-02-16T11:35:24.906Z,6.25
2019-02-16T11:38:03.663Z,4.33
2019-02-16T11:40:33.601Z,4.58
2019-02-16T11:43:15.593Z,4.10
2019-02-16T11:45:57.429Z,4.65
2019-02-16T11:48:30.068Z,4.55
2019-02-16T11:51:00.033Z,3.90
2019-02-16T11:53:32.758Z,4.45
2019-02-16T11:56:18.957Z,4.15
2019-02-16T11:59:05.192Z,3.83
2019-02-16T12:01:35.127Z,3.80
2019-02-16T12:04:05.032Z,4.10
2019-02-16T12:06:34.971Z,4.05
2019-02-16T12:09:10.601Z,3.80
2019-02-16T12:11:55.361Z,3.80
2019-02-16T12:14:25.303Z,3.80
2019-02-16T12:17:01.235Z,3.47
2019-02-16T12:19:43.002Z,3.85
2019-02-16T12:22:28.604Z,3.45
2019-02-16T12:25:07.203Z,3.20
2019-02-16T12:27:43.106Z,3.05
2019-02-16T12:30:15.520Z,3.17
2019-02-16T12:32:54.146Z,2.80
2019-02-16T12:35:36.174Z,2.95
2019-02-16T12:38:11.934Z,2.80
2019-02-16T12:40:41.858Z,3.33
2019-02-16T12:43:23.763Z,3.17
2019-02-16T12:46:09.734Z,2.92
2019-02-16T12:48:39.631Z,3.30
2019-02-16T12:51:21.126Z,2.62
2019-02-16T12:53:59.745Z,3.25
2019-02-16T12:56:38.633Z,3.30
2019-02-16T12:59:08.618Z,2.90
2019-02-16T13:01:46.996Z,2.90
2019-02-16T13:04:34.759Z,3.17
2019-02-16T13:07:07.172Z,3.60
2019-02-16T13:09:37.063Z,3.20
2019-02-16T13:12:23.224Z,3.65
2019-02-16T13:15:04.969Z,3.02
2019-02-16T13:17:34.902Z,2.95
2019-02-16T13:20:04.886Z,3.00
2019-02-16T13:22:46.594Z,3.10
2019-02-16T13:25:31.343Z,3.40
2019-02-16T13:28:01.261Z,3.60
2019-02-16T13:30:34.100Z,3.87
2019-02-16T13:33:12.924Z,3.35
2019-02-16T13:35:45.803Z,3.40
2019-02-16T13:38:21.858Z,3.70
2019-02-16T13:40:51.761Z,3.47
2019-02-16T13:43:27.646Z,3.72
2019-02-16T13:46:13.838Z,3.80
2019-02-16T13:48:46.776Z,3.85
2019-02-16T13:51:16.757Z,3.67
2019-02-16T13:53:49.658Z,3.70
2019-02-16T13:56:34.183Z,4.15
2019-02-16T13:59:04.190Z,4.28
2019-02-16T14:01:34.096Z,8.85
2019-02-16T14:04:21.886Z,7.40
2019-02-16T14:07:03.453Z,4.50
2019-02-16T14:09:39.171Z,6.05
2019-02-16T14:12:20.883Z,7.05
2019-02-16T14:14:50.808Z,6.95
2019-02-16T14:17:26.566Z,5.30
2019-02-16T14:19:54.848Z,6.87
2019-02-16T14:22:23.391Z,5.15
2019-02-16T14:24:53.390Z,4.97
2019-02-16T14:27:21.658Z,4.70
2019-02-16T14:29:49.943Z,5.30
2019-02-16T14:32:18.250Z,4.72
2019-02-16T14:34:46.515Z,5.55
2019-02-16T14:37:26.056Z,4.87
2019-02-16T14:39:54.540Z,5.12
2019-02-16T14:42:22.865Z,4.85
2019-02-16T14:44:51.121Z,5.53
2019-02-16T14:47:19.416Z,5.03
2019-02-16T14:49:47.693Z,5.45
2019-02-16T14:52:16.051Z,5.42
2019-02-16T14:54:44.328Z,5.28
2019-02-16T14:57:12.697Z,4.80
2019-02-16T14:59:40.939Z,5.00
2019-02-16T15:02:09.247Z,6.03
2019-02-16T15:04:37.572Z,5.45
2019-02-16T15:07:05.877Z,4.55
2019-02-16T15:09:34.139Z,4.62
2019-02-16T15:12:02.510Z,4.75
2019-02-16T15:14:30.831Z,5.20
2019-02-16T15:16:59.137Z,4.85
2019-02-16T15:19:27.412Z,5.03
2019-02-16T15:21:55.766Z,4.47
2019-02-16T15:24:24.027Z,5.40
2019-02-16T15:26:52.310Z,4.90
2019-02-16T15:29:22.184Z,4.53
2019-02-16T15:31:50.647Z,4.93
2019-02-16T15:34:18.952Z,5.00
2019-02-16T15:36:47.355Z,5.20
2019-02-16T15:39:15.651Z,5.00
2019-02-16T15:41:43.965Z,5.63
2019-02-16T15:44:12.263Z,5.00
2019-02-16T15:46:40.525Z,4.40
2019-02-16T15:49:08.833Z,4.90
2019-02-16T15:51:37.140Z,7.40
2019-02-16T15:54:05.436Z,7.30
2019-02-16T15:56:33.712Z,7.33
2019-02-16T15:59:02.058Z,5.50
2019-02-16T16:01:30.370Z,4.60
2019-02-16T16:03:58.794Z,5.07
2019-02-16T16:06:27.103Z,4.77
2019-02-16T16:09:03.163Z,5.87
2019-02-16T16:11:42.130Z,5.53
2019-02-16T16:14:14.867Z,5.67
2019-02-16T16:16:47.336Z,4.70
2019-02-16T16:19:17.282Z,5.03
2019-02-16T16:21:47.183Z,4.27
2019-02-16T16:24:19.841Z,5.07
2019-02-16T16:27:04.551Z,5.00
2019-02-16T16:29:43.309Z,4.80
2019-02-16T16:32:13.220Z,5.20
2019-02-16T16:34:49.105Z,5.63
2019-02-16T16:37:35.076Z,5.90
2019-02-16T16:40:10.970Z,5.70
2019-02-16T16:42:49.880Z,5.67
2019-02-16T16:45:22.851Z,6.07
2019-02-16T16:48:10.762Z,5.93
2019-02-16T16:50:43.602Z,6.33
2019-02-16T16:53:19.275Z,5.90
2019-02-16T16:55:49.186Z,5.37
2019-02-16T16:58:33.743Z,5.77
2019-02-16T17:01:03.685Z,5.40
2019-02-16T17:03:36.400Z,6.03
2019-02-16T17:06:22.427Z,6.50
2019-02-16T17:08:52.343Z,5.40
2019-02-16T17:11:22.367Z,6.97
2019-02-16T17:13:58.149Z,7.10
2019-02-16T17:16:46.046Z,8.00
2019-02-16T17:19:15.942Z,7.57
2019-02-16T17:21:51.733Z,6.93
2019-02-16T17:24:27.368Z,7.63
2019-02-16T17:26:59.986Z,8.30
2019-02-16T17:29:35.960Z,9.77
2019-02-16T17:32:05.945Z,9.20
2019-02-16T17:34:38.569Z,9.73
2019-02-16T17:37:24.494Z,9.87
2019-02-16T17:40:10.685Z,9.07
2019-02-16T17:42:49.667Z,8.03
2019-02-16T17:45:28.630Z,9.50
2019-02-16T17:48:04.526Z,8.67
2019-02-16T17:50:34.447Z,7.33
2019-02-16T17:53:16.385Z,8.57
2019-02-16T17:55:48.747Z,9.47
2019-02-16T17:58:18.706Z,11.40
2019-02-16T18:00:51.354Z,11.27
2019-02-16T18:03:36.082Z,9.90
2019-02-16T18:06:08.895Z,9.73
2019-02-16T18:08:47.519Z,9.70
2019-02-16T18:11:32.540Z,9.63
2019-02-16T18:14:08.548Z,9.00
2019-02-16T18:16:54.855Z,8.30
2019-02-16T18:19:24.784Z,10.30
2019-02-16T18:21:54.695Z,12.40
2019-02-16T18:24:40.774Z,12.57
2019-02-16T18:27:10.689Z,12.27
2019-02-16T18:29:40.713Z,9.50
2019-02-16T18:32:16.394Z,11.73
2019-02-16T18:35:04.508Z,11.13
2019-02-16T18:37:37.301Z,9.13
2019-02-16T18:40:22.770Z,9.80
2019-02-16T18:43:08.695Z,10.53
2019-02-16T18:45:41.303Z,9.03
2019-02-16T18:48:14.007Z,8.53
2019-02-16T18:50:46.886Z,9.37
2019-02-16T18:53:16.886Z,10.00
2019-02-16T18:55:52.626Z,8.03
2019-02-16T18:58:31.317Z,8.37
2019-02-16T19:01:01.272Z,8.03
2019-02-16T19:03:48.897Z,8.37
2019-02-16T19:06:36.528Z,8.17
2019-02-16T19:09:15.514Z,8.37
2019-02-16T19:12:00.284Z,9.53
2019-02-16T19:14:36.213Z,8.67
2019-02-16T19:17:08.694Z,7.60
2019-02-16T19:19:47.451Z,8.00
2019-02-16T19:22:20.164Z,8.10
2019-02-16T19:24:55.895Z,7.63
2019-02-16T19:27:40.677Z,8.90
2019-02-16T19:30:16.885Z,9.97
2019-02-16T19:32:46.907Z,9.77
2019-02-16T19:35:25.787Z,10.13
2019-02-16T19:38:13.658Z,9.43
2019-02-16T19:40:46.245Z,9.40
2019-02-16T19:43:24.943Z,8.67
2019-02-16T19:46:12.965Z,7.67
2019-02-16T19:48:45.737Z,8.30
2019-02-16T19:51:15.635Z,8.27
2019-02-16T19:53:48.362Z,8.43
2019-02-16T19:56:21.228Z,9.37
2019-02-16T19:59:05.963Z,8.20
2019-02-16T20:01:41.960Z,7.37
2019-02-16T20:04:26.717Z,8.90
2019-02-16T20:07:12.542Z,10.07
2019-02-16T20:09:44.922Z,8.80
2019-02-16T20:12:14.841Z,8.60
2019-02-16T20:14:47.585Z,9.13
2019-02-16T20:17:17.496Z,8.97
2019-02-16T20:19:47.441Z,9.80
2019-02-16T20:22:17.416Z,9.13
2019-02-16T20:25:03.434Z,8.03
2019-02-16T20:27:37.633Z,7.83
2019-02-16T20:30:17.821Z,9.13
2019-02-16T20:32:50.707Z,8.40
2019-02-16T20:35:32.323Z,7.80
2019-02-16T20:38:08.081Z,7.73
2019-02-16T20:40:38.035Z,7.63
2019-02-16T20:43:10.924Z,7.70
2019-02-16T20:45:43.279Z,9.10
2019-02-16T20:48:13.160Z,8.60
2019-02-16T20:50:43.085Z,9.03
2019-02-16T20:53:13.006Z,8.57
2019-02-16T20:55:42.932Z,7.73
2019-02-16T20:58:18.619Z,8.50
2019-02-16T21:00:48.619Z,9.63
2019-02-16T21:03:18.542Z,9.30
2019-02-16T21:06:03.368Z,7.90
2019-02-16T21:08:42.026Z,9.63
2019-02-16T21:11:11.987Z,8.60
2019-02-16T21:13:41.895Z,9.87
2019-02-16T21:16:14.719Z,10.27
2019-02-16T21:18:53.344Z,9.27
2019-02-16T21:21:31.991Z,9.60
2019-02-16T21:24:01.879Z,9.20
2019-02-16T21:26:37.128Z,10.00
2019-02-16T21:29:15.380Z,8.87
2019-02-16T21:31:45.325Z,8.67
2019-02-16T21:34:15.224Z,8.17
2019-02-16T21:36:48.131Z,8.47
2019-02-16T21:39:20.791Z,8.80
2019-02-16T21:41:56.788Z,8.67
2019-02-16T21:44:26.676Z,8.67
2019-02-16T21:47:12.621Z,8.77
2019-02-16T21:49:54.531Z,8.70
2019-02-16T21:52:40.702Z,9.80
2019-02-16T21:55:28.564Z,8.90
2019-02-16T21:58:13.558Z,10.40
2019-02-16T22:00:46.126Z,11.00
2019-02-16T22:03:18.758Z,10.37
2019-02-16T22:06:00.229Z,10.27
2019-02-16T22:08:48.076Z,9.90
2019-02-16T22:11:17.964Z,9.53
2019-02-16T22:13:46.265Z,9.37
2019-02-16T22:16:14.519Z,8.97
2019-02-16T22:18:42.824Z,9.27
2019-02-16T22:21:11.089Z,10.13
2019-02-16T22:23:39.392Z,11.00
2019-02-16T22:26:07.776Z,11.30
2019-02-16T22:28:36.092Z,10.83
2019-02-16T22:31:04.428Z,10.50
2019-02-16T22:33:32.772Z,11.37
2019-02-16T22:36:01.077Z,11.53
2019-02-16T22:38:29.339Z,12.13
2019-02-16T22:40:57.634Z,12.50
2019-02-16T22:43:25.909Z,11.97
2019-02-16T22:45:54.181Z,12.63
2019-02-16T22:48:22.449Z,12.07
2019-02-16T22:50:50.810Z,13.50
2019-02-16T22:53:19.075Z,13.97
2019-02-16T22:55:47.367Z,14.20
2019-02-16T22:58:15.695Z,14.10
2019-02-16T23:00:45.054Z,14.23
2019-02-16T23:03:13.619Z,14.70
2019-02-16T23:05:41.911Z,14.10
2019-02-16T23:08:10.185Z,13.27
2019-02-16T23:10:38.479Z,14.50
2019-02-16T23:13:06.808Z,15.20
2019-02-16T23:15:35.095Z,15.23
2019-02-16T23:18:03.355Z,14.60
2019-02-16T23:20:31.654Z,17.13
2019-02-16T23:22:59.917Z,20.27
2019-02-16T23:25:28.285Z,19.13
2019-02-16T23:27:56.555Z,14.87
2019-02-16T23:30:24.893Z,15.73
2019-02-16T23:32:53.175Z,12.53
2019-02-16T23:35:21.460Z,12.87
2019-02-16T23:37:49.801Z,11.27
2019-02-16T23:40:18.061Z,10.60
2019-02-16T23:42:46.358Z,10.33
2019-02-16T23:45:14.618Z,10.20
2019-02-16T23:47:42.996Z,10.60
2019-02-16T23:50:11.333Z,9.70
2019-02-16T23:52:39.700Z,10.13
2019-02-16T23:55:10.058Z,11.17
2019-02-16T23:57:38.349Z,9.93
